createdAt,value
2023-04-21T00:01:32.928Z,2.35
2023-04-21T00:04:01.299Z,2.45
2023-04-21T00:06:31.413Z,2.33
2023-04-21T00:11:26.289Z,2.90
2023-04-21T00:13:53.679Z,2.40
2023-04-21T00:16:21.149Z,2.50
2023-04-21T00:18:48.962Z,2.08
2023-04-21T00:21:17.725Z,2.58
2023-04-21T00:23:47.300Z,2.28
2023-04-21T00:26:15.051Z,2.55
2023-04-21T00:28:43.246Z,2.30
2023-04-21T00:31:10.717Z,2.60
2023-04-21T00:33:38.570Z,2.37
2023-04-21T00:36:06.050Z,2.28
2023-04-21T00:38:33.496Z,2.60
2023-04-21T00:41:01.349Z,2.67
2023-04-21T00:43:30.918Z,2.45
2023-04-21T00:45:58.383Z,2.03
2023-04-21T00:48:26.063Z,2.40
2023-04-21T00:50:53.529Z,2.50
2023-04-21T00:53:20.964Z,2.55
2023-04-21T00:55:51.378Z,2.50
2023-04-21T00:58:18.769Z,2.17
2023-04-21T01:00:46.269Z,2.58
2023-04-21T01:03:14.210Z,2.55
2023-04-21T01:05:42.547Z,2.75
2023-04-21T01:08:12.571Z,2.03
2023-04-21T01:10:40.222Z,2.30
2023-04-21T01:13:07.629Z,2.10
2023-04-21T01:15:35.008Z,2.55
2023-04-21T01:18:03.060Z,2.45
2023-04-21T01:20:30.495Z,2.42
2023-04-21T01:22:58.492Z,2.10
2023-04-21T01:25:28.343Z,2.28
2023-04-21T01:27:56.646Z,2.30
2023-04-21T01:30:24.097Z,2.30
2023-04-21T01:32:52.221Z,2.05
2023-04-21T01:35:19.713Z,2.22
2023-04-21T01:37:47.136Z,2.20
2023-04-21T01:40:14.870Z,2.10
2023-04-21T01:42:43.284Z,1.85
2023-04-21T01:45:11.159Z,1.92
2023-04-21T01:47:38.892Z,2.42
2023-04-21T01:50:07.978Z,2.08
2023-04-21T01:52:35.553Z,2.30
2023-04-21T01:55:03.217Z,2.40
2023-04-21T01:57:30.717Z,2.10
2023-04-21T01:59:58.239Z,2.50
2023-04-21T02:02:27.800Z,2.10
2023-04-21T02:04:55.682Z,1.95
2023-04-21T02:07:23.099Z,2.37
2023-04-21T02:09:50.492Z,2.50
2023-04-21T02:12:21.191Z,2.22
2023-04-21T02:14:49.453Z,1.87
2023-04-21T02:17:17.759Z,2.00
2023-04-21T02:19:45.538Z,2.40
2023-04-21T02:22:13.012Z,1.92
2023-04-21T02:24:40.873Z,2.22
2023-04-21T02:27:08.549Z,1.70
2023-04-21T02:29:36.024Z,2.70
2023-04-21T02:32:14.265Z,2.45
2023-04-21T02:34:51.207Z,2.00
2023-04-21T02:37:18.688Z,2.00
2023-04-21T02:39:46.140Z,2.10
2023-04-21T02:42:13.862Z,1.87
2023-04-21T02:44:42.803Z,2.10
2023-04-21T02:47:10.563Z,1.87
2023-04-21T02:49:42.187Z,2.10
2023-04-21T02:52:10.001Z,2.12
2023-04-21T02:54:37.740Z,2.10
2023-04-21T02:57:05.186Z,1.77
2023-04-21T02:59:33.834Z,2.12
2023-04-21T03:02:01.743Z,2.10
2023-04-21T03:04:30.234Z,2.10
2023-04-21T03:06:58.330Z,2.12
2023-04-21T03:09:26.003Z,1.95
2023-04-21T03:11:53.724Z,1.83
2023-04-21T03:14:21.162Z,1.77
2023-04-21T03:16:48.911Z,2.40
2023-04-21T03:19:16.597Z,2.15
2023-04-21T03:21:45.103Z,1.75
2023-04-21T03:24:12.809Z,2.05
2023-04-21T03:26:43.298Z,2.15
2023-04-21T03:29:10.818Z,2.15
2023-04-21T03:31:38.678Z,1.80
2023-04-21T03:34:06.152Z,1.95
2023-04-21T03:36:33.795Z,1.92
2023-04-21T03:39:12.802Z,2.05
2023-04-21T03:41:47.143Z,2.03
2023-04-21T03:44:14.869Z,2.00
2023-04-21T03:46:42.282Z,2.03
2023-04-21T03:49:10.169Z,1.95
2023-04-21T03:51:37.878Z,2.53
2023-04-21T03:54:05.336Z,2.20
2023-04-21T03:56:32.756Z,2.10
2023-04-21T03:59:00.860Z,2.35
2023-04-21T04:01:28.717Z,2.10
2023-04-21T04:03:56.489Z,2.37
2023-04-21T04:06:24.217Z,1.87
2023-04-21T04:08:51.644Z,1.87
2023-04-21T04:11:19.369Z,1.90
2023-04-21T04:13:46.798Z,1.90
2023-04-21T04:16:14.371Z,1.90
2023-04-21T04:18:42.250Z,1.80
2023-04-21T04:21:09.635Z,1.70
2023-04-21T04:23:37.654Z,1.85
2023-04-21T04:26:05.737Z,2.30
2023-04-21T04:28:33.768Z,2.80
2023-04-21T04:31:01.339Z,2.50
2023-04-21T04:33:29.281Z,2.45
2023-04-21T04:35:58.325Z,2.53
2023-04-21T04:38:25.760Z,2.90
2023-04-21T04:40:54.833Z,2.72
2023-04-21T04:43:22.422Z,2.92
2023-04-21T04:45:50.024Z,3.00
2023-04-21T04:48:17.877Z,2.75
2023-04-21T04:50:45.317Z,2.67
2023-04-21T04:53:12.752Z,3.00
2023-04-21T04:55:40.455Z,2.35
2023-04-21T04:58:07.907Z,2.70
2023-04-21T05:00:37.061Z,2.40
2023-04-21T05:03:05.203Z,2.90
2023-04-21T05:05:32.821Z,2.42
2023-04-21T05:08:00.241Z,2.47
2023-04-21T05:10:27.997Z,2.80
2023-04-21T05:12:55.375Z,2.30
2023-04-21T05:15:23.106Z,2.58
2023-04-21T05:17:50.834Z,2.67
2023-04-21T05:20:18.288Z,2.70
2023-04-21T05:22:45.710Z,2.60
2023-04-21T05:25:15.763Z,2.58
2023-04-21T05:27:43.458Z,2.53
2023-04-21T05:30:11.419Z,2.37
2023-04-21T05:32:39.212Z,2.70
2023-04-21T05:35:07.115Z,2.85
2023-04-21T05:37:34.548Z,2.67
2023-04-21T05:40:02.302Z,2.42
2023-04-21T05:42:30.422Z,2.35
2023-04-21T05:44:58.266Z,2.55
2023-04-21T05:47:26.007Z,2.50
2023-04-21T05:49:53.961Z,2.60
2023-04-21T05:52:21.867Z,2.85
2023-04-21T05:54:49.610Z,2.65
2023-04-21T05:57:17.822Z,2.80
2023-04-21T05:59:45.349Z,2.65
2023-04-21T06:02:13.160Z,2.50
2023-04-21T06:04:41.059Z,2.78
2023-04-21T06:07:09.714Z,2.15
2023-04-21T06:09:37.306Z,2.40
2023-04-21T06:12:05.132Z,2.50
2023-04-21T06:14:32.582Z,2.28
2023-04-21T06:17:00.059Z,2.30
2023-04-21T06:19:27.764Z,2.20
2023-04-21T06:21:56.944Z,2.40
2023-04-21T06:24:27.100Z,2.73
2023-04-21T06:26:54.833Z,2.90
2023-04-21T06:29:22.397Z,2.20
2023-04-21T06:31:49.912Z,2.50
2023-04-21T06:34:18.083Z,2.40
2023-04-21T06:36:45.840Z,2.50
2023-04-21T06:39:13.306Z,2.67
2023-04-21T06:41:41.026Z,2.40
2023-04-21T06:44:08.502Z,2.28
2023-04-21T06:46:36.071Z,2.47
2023-04-21T06:49:04.119Z,2.33
2023-04-21T06:51:32.192Z,1.92
2023-04-21T06:53:59.677Z,2.20
2023-04-21T06:56:27.709Z,2.20
2023-04-21T06:58:55.514Z,2.55
2023-04-21T07:01:24.493Z,2.05
2023-04-21T07:03:52.311Z,2.20
2023-04-21T07:06:19.802Z,2.60
2023-04-21T07:08:47.208Z,2.20
2023-04-21T07:11:14.862Z,2.12
2023-04-21T07:13:42.277Z,2.55
2023-04-21T07:16:09.876Z,2.53
2023-04-21T07:18:39.927Z,2.40
2023-04-21T07:21:07.597Z,2.50
2023-04-21T07:23:34.991Z,2.30
2023-04-21T07:26:02.685Z,2.42
2023-04-21T07:28:30.148Z,2.37
2023-04-21T07:30:57.666Z,2.50
2023-04-21T07:33:25.364Z,2.35
2023-04-21T07:35:52.791Z,2.53
2023-04-21T07:38:20.288Z,2.58
2023-04-21T07:40:47.960Z,2.22
2023-04-21T07:43:15.485Z,2.42
2023-04-21T07:45:42.939Z,2.83
2023-04-21T07:48:10.963Z,2.40
2023-04-21T07:50:38.399Z,2.40
2023-04-21T07:53:05.886Z,2.67
2023-04-21T07:55:34.309Z,2.65
2023-04-21T07:58:01.702Z,2.87
2023-04-21T08:00:29.143Z,2.60
2023-04-21T08:02:56.902Z,2.80
2023-04-21T08:05:26.506Z,2.40
2023-04-21T08:07:55.745Z,2.58
2023-04-21T08:10:23.796Z,2.75
2023-04-21T08:12:51.268Z,2.53
2023-04-21T08:15:18.851Z,2.72
2023-04-21T08:17:46.596Z,2.42
2023-04-21T08:20:14.276Z,2.90
2023-04-21T08:22:41.739Z,2.50
2023-04-21T08:25:09.595Z,3.40
2023-04-21T08:27:40.127Z,2.80
2023-04-21T08:30:08.178Z,3.00
2023-04-21T08:32:35.987Z,3.60
2023-04-21T08:35:03.511Z,3.12
2023-04-21T08:37:31.076Z,3.30
2023-04-21T08:39:58.876Z,3.47
2023-04-21T08:42:26.288Z,2.60
2023-04-21T08:44:53.668Z,2.97
2023-04-21T08:47:21.332Z,2.90
2023-04-21T08:49:48.731Z,3.80
2023-04-21T08:52:16.134Z,3.37
2023-04-21T08:54:43.787Z,3.08
2023-04-21T08:57:15.750Z,3.20
2023-04-21T08:59:44.605Z,3.30
2023-04-21T09:02:21.397Z,3.70
2023-04-21T09:04:51.624Z,3.12
2023-04-21T09:07:35.901Z,3.20
2023-04-21T09:10:04.407Z,3.30
2023-04-21T09:12:32.236Z,2.87
2023-04-21T09:15:00.908Z,3.80
2023-04-21T09:17:32.733Z,3.42
2023-04-21T09:20:16.792Z,2.85
2023-04-21T09:22:44.556Z,3.58
2023-04-21T09:25:16.141Z,3.62
2023-04-21T09:27:44.072Z,3.62
2023-04-21T09:30:11.857Z,3.50
2023-04-21T09:32:40.010Z,3.65
2023-04-21T09:35:11.335Z,3.47
2023-04-21T09:37:39.527Z,3.20
2023-04-21T09:40:07.404Z,3.03
2023-04-21T09:42:39.258Z,3.58
2023-04-21T09:45:32.386Z,3.75
2023-04-21T09:50:54.787Z,3.03
2023-04-21T09:53:16.783Z,3.83
2023-04-21T09:55:44.917Z,3.60
2023-04-21T09:58:12.352Z,3.55
2023-04-21T10:00:40.995Z,3.25
2023-04-21T10:03:11.408Z,3.60
2023-04-21T10:05:42.050Z,3.90
2023-04-21T10:08:11.794Z,3.72
2023-04-21T10:10:39.462Z,4.20
2023-04-21T10:13:07.193Z,3.50
2023-04-21T10:15:38.133Z,3.30
2023-04-21T10:18:18.854Z,3.85
2023-04-21T10:21:12.029Z,3.97
2023-04-21T10:23:43.801Z,3.70
2023-04-21T10:26:22.753Z,3.58
2023-04-21T10:29:01.047Z,4.00
2023-04-21T10:31:53.644Z,3.35
2023-04-21T10:34:38.075Z,4.10
2023-04-21T10:37:05.619Z,3.83
2023-04-21T10:39:48.271Z,3.72
2023-04-21T10:42:15.818Z,4.07
2023-04-21T10:44:43.818Z,3.55
2023-04-21T10:47:11.528Z,3.28
2023-04-21T10:49:39.923Z,3.35
2023-04-21T10:52:08.240Z,3.85
2023-04-21T10:54:47.746Z,4.03
2023-04-21T10:57:19.507Z,3.90
2023-04-21T10:59:47.687Z,3.33
2023-04-21T11:02:16.606Z,3.70
2023-04-21T11:04:50.312Z,3.55
2023-04-21T11:07:24.031Z,4.07
2023-04-21T11:09:59.394Z,4.07
2023-04-21T11:12:29.207Z,4.35
2023-04-21T11:14:56.745Z,4.22
2023-04-21T11:17:24.579Z,3.70
2023-04-21T11:19:54.382Z,3.90
2023-04-21T11:22:27.890Z,3.83
2023-04-21T11:24:56.368Z,3.75
2023-04-21T11:27:23.780Z,4.37
2023-04-21T11:29:51.390Z,3.60
2023-04-21T11:32:19.169Z,4.37
2023-04-21T11:34:46.711Z,3.70
2023-04-21T11:37:26.979Z,4.05
2023-04-21T11:40:01.113Z,4.70
2023-04-21T11:42:28.623Z,3.95
2023-04-21T11:44:56.840Z,3.97
2023-04-21T11:47:25.830Z,4.10
2023-04-21T11:49:54.750Z,4.37
2023-04-21T11:52:33.169Z,4.35
2023-04-21T11:55:02.074Z,4.05
2023-04-21T11:57:30.386Z,4.20
2023-04-21T12:00:11.036Z,3.92
2023-04-21T12:02:38.949Z,3.70
2023-04-21T12:05:08.173Z,4.47
2023-04-21T12:07:37.039Z,4.28
2023-04-21T12:10:20.957Z,4.18
2023-04-21T12:12:48.493Z,4.28
2023-04-21T12:15:28.755Z,3.80
2023-04-21T12:17:56.460Z,3.92
2023-04-21T12:20:24.823Z,4.07
2023-04-21T12:22:53.375Z,3.95
2023-04-21T12:25:20.821Z,4.20
2023-04-21T12:27:52.101Z,4.07
2023-04-21T12:30:20.308Z,4.30
2023-04-21T12:32:48.504Z,4.00
2023-04-21T12:35:16.247Z,3.83
2023-04-21T12:37:44.749Z,4.80
2023-04-21T12:40:12.437Z,3.97
2023-04-21T12:42:39.948Z,3.65
2023-04-21T12:45:07.792Z,4.15
2023-04-21T12:47:36.906Z,4.15
2023-04-21T12:50:04.975Z,4.90
2023-04-21T12:52:32.460Z,4.57
2023-04-21T12:55:00.290Z,4.07
2023-04-21T12:57:27.776Z,4.05
2023-04-21T12:59:55.997Z,4.50
2023-04-21T13:02:23.782Z,4.07
2023-04-21T13:04:51.316Z,4.60
2023-04-21T13:07:21.384Z,4.70
2023-04-21T13:09:49.164Z,4.05
2023-04-21T13:12:17.310Z,5.05
2023-04-21T13:14:44.809Z,3.80
2023-04-21T13:17:12.652Z,4.55
2023-04-21T13:19:40.223Z,4.50
2023-04-21T13:22:07.733Z,4.00
2023-04-21T13:24:35.482Z,4.12
2023-04-21T13:27:02.940Z,3.97
2023-04-21T13:29:33.974Z,3.70
2023-04-21T13:32:02.613Z,3.85
2023-04-21T13:34:30.924Z,3.70
2023-04-21T13:36:58.510Z,4.55
2023-04-21T13:39:26.511Z,3.92
2023-04-21T13:41:54.411Z,3.75
2023-04-21T13:44:21.954Z,4.35
2023-04-21T13:46:52.245Z,4.87
2023-04-21T13:49:20.888Z,4.10
2023-04-21T13:51:48.321Z,4.90
2023-04-21T13:54:16.111Z,4.55
2023-04-21T13:56:43.535Z,4.25
2023-04-21T13:59:11.261Z,4.90
2023-04-21T14:01:39.001Z,4.40
2023-04-21T14:04:07.070Z,3.90
2023-04-21T14:06:34.592Z,4.68
2023-04-21T14:09:02.024Z,4.30
2023-04-21T14:11:29.841Z,4.12
2023-04-21T14:14:08.860Z,4.47
2023-04-21T14:19:04.938Z,4.32
2023-04-21T14:21:32.827Z,4.97
2023-04-21T14:24:00.876Z,4.57
2023-04-21T14:26:28.308Z,5.15
2023-04-21T14:28:56.416Z,5.10
2023-04-21T14:31:24.158Z,4.53
2023-04-21T14:33:51.636Z,4.90
2023-04-21T14:36:19.077Z,4.85
2023-04-21T14:38:46.781Z,4.95
2023-04-21T14:41:14.535Z,5.05
2023-04-21T14:43:41.936Z,5.65
2023-04-21T14:46:09.865Z,5.50
2023-04-21T14:48:37.371Z,5.60
2023-04-21T14:51:06.098Z,5.12
2023-04-21T14:53:33.861Z,4.90
2023-04-21T14:56:01.300Z,5.68
2023-04-21T14:58:28.738Z,5.37
2023-04-21T15:00:56.610Z,4.90
2023-04-21T15:03:24.295Z,4.95
2023-04-21T15:05:52.233Z,5.20
2023-04-21T15:08:20.802Z,5.68
2023-04-21T15:10:48.396Z,5.40
2023-04-21T15:13:16.479Z,5.60
2023-04-21T15:15:44.372Z,4.50
2023-04-21T15:18:11.959Z,4.70
2023-04-21T15:20:45.248Z,5.25
2023-04-21T15:23:14.004Z,4.87
2023-04-21T15:25:41.766Z,4.90
2023-04-21T15:28:09.801Z,4.90
2023-04-21T15:30:37.672Z,5.05
2023-04-21T15:33:05.333Z,4.78
2023-04-21T15:35:32.788Z,5.20
2023-04-21T15:38:00.620Z,4.78
2023-04-21T15:40:28.069Z,5.28
2023-04-21T15:42:55.503Z,5.32
2023-04-21T15:45:23.244Z,5.22
2023-04-21T15:47:51.019Z,4.55
2023-04-21T15:50:18.508Z,4.97
2023-04-21T15:52:46.235Z,4.80
2023-04-21T15:55:13.843Z,4.60
2023-04-21T15:57:41.331Z,4.95
2023-04-21T16:00:10.575Z,4.97
2023-04-21T16:02:38.865Z,4.97
2023-04-21T16:05:06.920Z,4.90
2023-04-21T16:07:34.709Z,4.80
2023-04-21T16:10:02.624Z,4.35
2023-04-21T16:12:30.225Z,4.68
2023-04-21T16:15:04.023Z,5.00
2023-04-21T16:17:44.166Z,4.68
2023-04-21T16:20:12.330Z,4.93
2023-04-21T16:22:39.771Z,4.28
2023-04-21T16:25:08.833Z,4.87
2023-04-21T16:27:36.442Z,4.57
2023-04-21T16:30:06.056Z,4.28
2023-04-21T16:32:35.951Z,4.53
2023-04-21T16:35:08.205Z,4.85
2023-04-21T16:37:38.188Z,4.28
2023-04-21T16:40:07.430Z,4.82
2023-04-21T16:42:35.213Z,4.22
2023-04-21T16:45:04.510Z,4.97
2023-04-21T16:47:37.917Z,4.62
2023-04-21T16:50:10.843Z,4.45
2023-04-21T16:52:38.320Z,4.90
2023-04-21T16:55:08.159Z,4.10
2023-04-21T17:00:07.033Z,4.30
2023-04-21T17:02:34.795Z,4.40
2023-04-21T17:05:02.660Z,4.62
2023-04-21T17:07:31.950Z,4.82
2023-04-21T17:09:59.510Z,4.75
2023-04-21T17:12:27.170Z,5.43
2023-04-21T17:14:54.577Z,4.80
2023-04-21T17:17:22.225Z,5.25
2023-04-21T17:19:50.076Z,4.78
2023-04-21T17:22:17.579Z,5.32
2023-04-21T17:24:53.211Z,4.85
2023-04-21T17:27:21.655Z,5.57
2023-04-21T17:29:49.235Z,5.12
2023-04-21T17:32:16.974Z,4.97
2023-04-21T17:34:44.812Z,4.35
2023-04-21T17:37:12.295Z,5.45
2023-04-21T17:39:39.793Z,5.43
2023-04-21T17:42:07.543Z,5.50
2023-04-21T17:44:35.194Z,5.50
2023-04-21T17:47:04.040Z,5.32
2023-04-21T17:49:31.770Z,4.90
2023-04-21T17:51:59.260Z,5.57
2023-04-21T17:54:27.000Z,5.57
2023-04-21T17:56:54.724Z,5.18
2023-04-21T17:59:22.170Z,5.50
2023-04-21T18:01:49.571Z,5.78
2023-04-21T18:04:17.518Z,5.30
2023-04-21T18:06:45.608Z,5.28
2023-04-21T18:09:13.223Z,4.95
2023-04-21T18:11:41.937Z,5.15
2023-04-21T18:14:10.211Z,5.78
2023-04-21T18:16:40.010Z,5.53
2023-04-21T18:19:09.435Z,5.47
2023-04-21T18:21:37.002Z,5.45
2023-04-21T18:24:05.056Z,5.28
2023-04-21T18:26:32.834Z,5.32
2023-04-21T18:29:00.758Z,4.78
2023-04-21T18:31:29.635Z,5.22
2023-04-21T18:33:57.702Z,5.40
2023-04-21T18:36:25.777Z,5.18
2023-04-21T18:38:53.203Z,5.50
2023-04-21T18:41:23.530Z,5.18
2023-04-21T18:43:50.972Z,5.13
2023-04-21T18:46:18.938Z,4.93
2023-04-21T18:48:47.245Z,5.15
2023-04-21T18:51:15.092Z,4.75
2023-04-21T18:53:43.374Z,4.97
2023-04-21T18:56:11.247Z,5.35
2023-04-21T18:58:38.869Z,4.65
2023-04-21T19:01:08.094Z,5.05
2023-04-21T19:03:37.888Z,4.75
2023-04-21T19:06:06.737Z,5.05
2023-04-21T19:08:41.929Z,4.60
2023-04-21T19:11:15.876Z,5.37
2023-04-21T19:13:43.542Z,5.00
2023-04-21T19:16:11.724Z,4.50
2023-04-21T19:18:39.841Z,5.30
2023-04-21T19:21:12.831Z,5.12
2023-04-21T19:23:41.755Z,4.85
2023-04-21T19:26:13.615Z,5.60
2023-04-21T19:28:41.831Z,4.93
2023-04-21T19:31:09.372Z,4.80
2023-04-21T19:33:37.242Z,4.95
2023-04-21T19:36:07.095Z,4.35
2023-04-21T19:38:35.874Z,4.60
2023-04-21T19:41:03.627Z,4.62
2023-04-21T19:43:31.818Z,4.82
2023-04-21T19:45:59.986Z,4.70
2023-04-21T19:48:28.432Z,4.85
2023-04-21T19:50:56.306Z,4.70
2023-04-21T19:53:41.269Z,4.75
2023-04-21T19:59:36.449Z,4.62
2023-04-21T20:02:09.607Z,4.82
2023-04-21T20:10:44.655Z,5.68
2023-04-21T20:13:13.854Z,4.90
2023-04-21T20:15:42.514Z,4.93
2023-04-21T20:18:10.962Z,5.03
2023-04-21T20:20:38.741Z,4.78
2023-04-21T20:23:06.395Z,4.62
2023-04-21T20:25:34.319Z,5.28
2023-04-21T20:28:02.670Z,4.75
2023-04-21T20:30:30.248Z,4.30
2023-04-21T20:32:57.754Z,4.50
2023-04-21T20:35:26.649Z,4.95
2023-04-21T20:37:55.709Z,4.65
2023-04-21T20:40:23.195Z,6.28
2023-04-21T20:42:52.086Z,6.45
2023-04-21T20:45:19.779Z,6.30
2023-04-21T20:47:47.476Z,5.47
2023-04-21T20:50:15.255Z,5.35
2023-04-21T20:52:43.019Z,5.22
2023-04-21T20:55:11.164Z,5.10
2023-04-21T20:57:39.614Z,4.68
2023-04-21T21:00:09.626Z,5.60
2023-04-21T21:02:37.799Z,4.95
2023-04-21T21:05:06.186Z,5.35
2023-04-21T21:07:33.680Z,5.32
2023-04-21T21:10:01.078Z,4.75
2023-04-21T21:12:28.829Z,5.12
2023-04-21T21:14:56.340Z,5.12
2023-04-21T21:17:23.731Z,5.28
2023-04-21T21:19:51.408Z,5.15
2023-04-21T21:22:18.794Z,4.62
2023-04-21T21:24:46.749Z,4.47
2023-04-21T21:27:14.421Z,4.78
2023-04-21T21:29:41.837Z,4.82
2023-04-21T21:32:09.244Z,5.00
2023-04-21T21:34:36.892Z,4.97
2023-04-21T21:37:04.447Z,4.47
2023-04-21T21:39:31.870Z,5.10
2023-04-21T21:41:59.535Z,4.20
2023-04-21T21:44:26.984Z,4.78
2023-04-21T21:46:54.370Z,4.43
2023-04-21T21:49:22.609Z,4.57
2023-04-21T21:51:50.515Z,4.47
2023-04-21T21:54:17.987Z,4.00
2023-04-21T21:56:45.644Z,4.70
2023-04-21T21:59:13.056Z,4.65
2023-04-21T22:01:41.611Z,4.60
2023-04-21T22:04:09.492Z,4.18
2023-04-21T22:06:37.195Z,4.43
2023-04-21T22:09:05.197Z,4.72
2023-04-21T22:11:32.882Z,4.62
2023-04-21T22:14:07.942Z,4.72
2023-04-21T22:16:46.619Z,4.45
2023-04-21T22:19:14.726Z,4.07
2023-04-21T22:21:42.141Z,4.10
2023-04-21T22:24:09.778Z,4.03
2023-04-21T22:26:37.277Z,4.30
2023-04-21T22:29:04.827Z,4.28
2023-04-21T22:31:32.503Z,4.62
2023-04-21T22:33:59.903Z,4.50
2023-04-21T22:36:27.396Z,4.30
2023-04-21T22:38:55.059Z,4.60
2023-04-21T22:41:22.768Z,4.72
2023-04-21T22:43:50.182Z,4.37
2023-04-21T22:46:17.947Z,4.20
2023-04-21T22:48:46.635Z,4.75
2023-04-21T22:51:21.077Z,4.53
2023-04-21T22:53:48.886Z,3.85
2023-04-21T22:56:16.301Z,4.03
2023-04-21T22:58:43.785Z,4.10
2023-04-21T23:01:11.636Z,3.92
2023-04-21T23:03:39.131Z,4.07
2023-04-21T23:06:06.821Z,4.40
2023-04-21T23:08:34.554Z,4.05
2023-04-21T23:11:04.113Z,4.62
2023-04-21T23:13:32.844Z,3.62
2023-04-21T23:16:01.176Z,4.00
2023-04-21T23:18:28.732Z,4.53
2023-04-21T23:20:56.174Z,3.87
2023-04-21T23:23:23.829Z,4.25
2023-04-21T23:25:51.635Z,3.60
2023-04-21T23:28:20.421Z,4.05
2023-04-21T23:30:48.226Z,3.90
2023-04-21T23:33:15.730Z,3.75
2023-04-21T23:35:43.222Z,4.22
2023-04-21T23:38:10.965Z,4.20
2023-04-21T23:40:38.398Z,4.22
2023-04-21T23:43:05.862Z,4.32
2023-04-21T23:45:33.596Z,3.90
2023-04-21T23:48:01.057Z,3.80
2023-04-21T23:50:28.505Z,3.60
2023-04-21T23:52:56.501Z,3.67
2023-04-21T23:55:23.901Z,3.70
2023-04-21T23:57:51.310Z,3.95
